Time;durP1;ratioP1;P1;durP2;ratioP2;P2;SDS_P1;SDS_P2;PMS_P1;PMS_P2;Temp;Humidity;BMP_temperature;BMP_pressure;BME280_temperature;BME280_humidity;BME280_pressure;Samples;Min_cycle;Max_cycle;Signal;HPM_P1;HPM_P2
2023/06/30 00:00:12;;;;;;;4.75;2.85;;;;;;;19.42;100.00;98320.31;5033011;28;20025;-75
2023/06/30 00:02:38;;;;;;;6.80;3.25;;;;;;;19.43;100.00;98327.44;5054593;28;20060;-75
2023/06/30 00:05:05;;;;;;;5.47;3.83;;;;;;;19.48;100.00;98330.19;5050902;28;20025;-76
2023/06/30 00:07:30;;;;;;;6.32;3.78;;;;;;;19.56;100.00;98328.00;5053189;28;20020;-75
2023/06/30 00:09:55;;;;;;;5.82;3.58;;;;;;;19.57;100.00;98329.63;5066856;28;20037;-75
2023/06/30 00:12:20;;;;;;;6.95;3.47;;;;;;;19.47;100.00;98303.84;5043944;28;20025;-75
2023/06/30 00:14:46;;;;;;;6.25;3.17;;;;;;;19.47;100.00;98314.84;5042205;28;20474;-75
2023/06/30 00:17:11;;;;;;;5.38;3.13;;;;;;;19.49;100.00;98318.13;5029329;28;20037;-74
2023/06/30 00:19:37;;;;;;;6.13;3.53;;;;;;;19.45;100.00;98311.53;5055678;28;20033;-74
2023/06/30 00:22:02;;;;;;;6.88;3.50;;;;;;;19.45;100.00;98303.31;5050544;28;20116;-74
2023/06/30 00:24:27;;;;;;;5.78;3.20;;;;;;;19.44;100.00;98309.91;5052693;28;20028;-74
2023/06/30 00:26:53;;;;;;;6.47;3.80;;;;;;;19.49;100.00;98317.28;5041853;28;20032;-75
2023/06/30 00:29:18;;;;;;;7.95;3.65;;;;;;;19.46;100.00;98307.69;5058755;28;20040;-75
2023/06/30 00:31:43;;;;;;;7.05;3.33;;;;;;;19.37;100.00;98301.09;5050375;28;20056;-75
2023/06/30 00:34:08;;;;;;;5.57;3.42;;;;;;;19.29;100.00;98298.91;5033187;28;20029;-75
2023/06/30 00:36:34;;;;;;;8.40;3.55;;;;;;;19.30;100.00;98297.78;5051298;28;20371;-75
2023/06/30 00:38:59;;;;;;;6.25;3.70;;;;;;;19.17;100.00;98287.34;5051110;28;20025;-75
2023/06/30 00:41:24;;;;;;;6.18;3.45;;;;;;;19.04;100.00;98266.78;5032612;28;20021;-75
2023/06/30 00:43:50;;;;;;;6.95;3.97;;;;;;;19.00;100.00;98282.94;5049672;28;20112;-75
2023/06/30 00:46:17;;;;;;;6.50;3.75;;;;;;;18.98;100.00;98293.34;5054464;28;20032;-75
2023/06/30 00:48:44;;;;;;;6.55;3.72;;;;;;;18.82;100.00;98275.22;5050682;28;20036;-75
2023/06/30 00:51:11;;;;;;;11.27;3.85;;;;;;;18.77;100.00;98275.22;5050571;28;20024;-75
2023/06/30 00:53:36;;;;;;;6.25;3.08;;;;;;;18.68;100.00;98276.78;5033137;28;20152;-75
2023/06/30 00:56:04;;;;;;;8.00;3.50;;;;;;;18.60;100.00;98261.69;5047158;28;20022;-75
2023/06/30 00:58:29;;;;;;;10.13;3.47;;;;;;;18.61;100.00;98279.78;5050497;28;20053;-75
2023/06/30 01:01:06;;;;;;;6.28;3.72;;;;;;;18.70;100.00;98280.09;5053805;28;20056;-75
2023/06/30 01:03:57;;;;;;;7.13;3.85;;;;;;;18.64;100.00;98272.94;5035673;28;20408;-75
2023/06/30 01:06:32;;;;;;;8.20;3.28;;;;;;;18.60;100.00;98268.00;5061372;28;20509;-75
2023/06/30 01:09:12;;;;;;;8.07;3.17;;;;;;;18.53;100.00;98270.16;5055076;28;20398;-75
2023/06/30 01:11:37;;;;;;;5.70;3.38;;;;;;;18.39;100.00;98261.63;5060491;28;20031;-75
2023/06/30 01:14:04;;;;;;;6.15;3.13;;;;;;;18.43;100.00;98277.53;5039204;28;20025;-75
2023/06/30 01:16:31;;;;;;;5.60;3.65;;;;;;;18.34;100.00;98266.28;5048632;28;20393;-75
2023/06/30 01:18:58;;;;;;;5.97;3.00;;;;;;;18.29;100.00;98267.06;5052607;28;20039;-76
2023/06/30 01:21:24;;;;;;;5.07;3.58;;;;;;;18.20;100.00;98260.44;5056523;28;20475;-76
2023/06/30 01:23:57;;;;;;;7.93;3.85;;;;;;;18.24;100.00;98278.00;5066263;28;20486;-75
2023/06/30 01:26:23;;;;;;;8.82;3.88;;;;;;;18.09;100.00;98256.00;5053853;28;20454;-75
2023/06/30 01:28:52;;;;;;;7.00;3.85;;;;;;;18.18;100.00;98271.66;5045379;28;20119;-75
2023/06/30 01:31:19;;;;;;;6.38;3.72;;;;;;;18.05;100.00;98244.78;5051669;28;20013;-75
2023/06/30 01:33:45;;;;;;;7.22;3.50;;;;;;;18.19;100.00;98256.06;5063492;28;20033;-75
2023/06/30 01:36:10;;;;;;;5.07;3.42;;;;;;;18.14;100.00;98237.69;5052438;28;20462;-75
2023/06/30 01:38:36;;;;;;;5.78;3.60;;;;;;;18.02;100.00;98226.13;5061336;28;20079;-75
2023/06/30 01:41:01;;;;;;;5.47;3.38;;;;;;;18.00;100.00;98211.91;5050477;28;20040;-75
2023/06/30 01:43:29;;;;;;;5.40;3.60;;;;;;;18.20;100.00;98249.47;5039186;28;20025;-75
2023/06/30 01:45:55;;;;;;;5.15;3.63;;;;;;;18.30;100.00;98265.97;5052213;28;20035;-75
2023/06/30 01:48:21;;;;;;;5.20;3.58;;;;;;;18.20;100.00;98248.66;5053603;28;20493;-75
2023/06/30 01:50:46;;;;;;;6.53;3.55;;;;;;;18.00;100.00;98208.31;5051636;28;20029;-75
2023/06/30 01:53:11;;;;;;;8.38;3.95;;;;;;;18.23;100.00;98242.66;5046708;28;20024;-75
2023/06/30 01:55:38;;;;;;;6.03;4.28;;;;;;;17.93;100.00;98212.13;5052845;28;20040;-75
2023/06/30 01:58:03;;;;;;;5.28;3.35;;;;;;;17.97;100.00;98237.03;5035088;28;20025;-76
2023/06/30 02:00:29;;;;;;;8.02;3.50;;;;;;;18.02;100.00;98239.81;5032972;28;20032;-75
2023/06/30 02:02:54;;;;;;;5.35;3.80;;;;;;;18.05;100.00;98244.78;5069449;28;20025;-75
2023/06/30 02:05:19;;;;;;;7.25;3.80;;;;;;;18.02;100.00;98223.38;5055386;28;20162;-75
2023/06/30 02:07:45;;;;;;;5.43;3.97;;;;;;;18.01;100.00;98237.34;5035077;28;20375;-75
2023/06/30 02:10:10;;;;;;;5.40;4.00;;;;;;;17.76;100.00;98222.38;5060281;28;20067;-75
2023/06/30 02:12:36;;;;;;;6.95;4.30;;;;;;;17.83;100.00;98239.44;5069902;28;20020;-75
2023/06/30 02:15:01;;;;;;;5.03;4.05;;;;;;;17.66;100.00;98216.88;5060669;28;20031;-76
2023/06/30 02:17:32;;;;;;;6.03;4.20;;;;;;;17.83;100.00;98238.59;5050783;28;20126;-75
2023/06/30 02:19:58;;;;;;;7.47;3.90;;;;;;;17.83;100.00;98238.59;5045907;28;20035;-75
2023/06/30 02:22:24;;;;;;;6.40;4.55;;;;;;;17.88;100.00;98238.63;5053017;28;20108;-75
2023/06/30 02:24:49;;;;;;;8.05;4.28;;;;;;;17.75;100.00;98223.47;5052963;28;20155;-75
2023/06/30 02:27:16;;;;;;;7.55;4.47;;;;;;;17.75;100.00;98239.91;5052769;28;20037;-75
2023/06/30 02:29:42;;;;;;;7.65;4.60;;;;;;;17.73;100.00;98245.63;5066950;28;20024;-75
2023/06/30 02:32:07;;;;;;;6.40;4.20;;;;;;;17.57;100.00;98215.69;5048755;28;20036;-75
2023/06/30 02:34:33;;;;;;;6.78;4.25;;;;;;;17.56;100.00;98225.81;5051162;28;20086;-75
2023/06/30 02:37:00;;;;;;;6.68;4.50;;;;;;;17.58;100.00;98240.06;5056050;28;20036;-76
2023/06/30 02:39:25;;;;;;;6.68;4.05;;;;;;;17.56;100.00;98246.88;5054884;28;20056;-75
2023/06/30 02:41:51;;;;;;;6.97;4.85;;;;;;;17.48;100.00;98250.94;5052571;28;20063;-75
2023/06/30 02:44:16;;;;;;;5.57;4.35;;;;;;;17.60;100.00;98251.53;5052321;28;20560;-75
2023/06/30 02:46:41;;;;;;;6.13;3.53;;;;;;;17.47;100.00;98232.84;5053384;28;20052;-75
2023/06/30 02:49:06;;;;;;;5.97;4.63;;;;;;;17.40;100.00;98238.56;5034354;28;20033;-75
2023/06/30 02:51:32;;;;;;;6.63;3.92;;;;;;;17.36;100.00;98258.47;5032453;28;20053;-76
2023/06/30 02:53:57;;;;;;;8.73;3.97;;;;;;;17.26;100.00;98240.06;5045894;28;20025;-75
2023/06/30 02:56:22;;;;;;;6.97;4.45;;;;;;;17.27;100.00;98249.94;5032808;28;20021;-75
2023/06/30 02:58:47;;;;;;;9.07;5.03;;;;;;;17.25;100.00;98242.00;5034364;28;20029;-75
2023/06/30 03:01:13;;;;;;;8.27;4.68;;;;;;;17.16;100.00;98226.31;5056624;28;20023;-76
2023/06/30 03:03:38;;;;;;;8.10;4.95;;;;;;;17.15;100.00;98232.88;5052081;28;20180;-76
2023/06/30 03:06:04;;;;;;;8.02;4.93;;;;;;;17.04;100.00;98219.13;5052501;28;20521;-75
2023/06/30 03:08:30;;;;;;;6.22;4.20;;;;;;;17.22;100.00;98242.50;5034840;28;20024;-75
2023/06/30 03:10:55;;;;;;;8.57;4.70;;;;;;;17.17;100.00;98225.25;5050887;28;20025;-75
2023/06/30 03:13:20;;;;;;;9.80;5.07;;;;;;;17.25;100.00;98244.72;5042588;28;20063;-75
2023/06/30 03:15:45;;;;;;;6.43;4.30;;;;;;;17.34;100.00;98245.06;5045454;28;20044;-75
2023/06/30 03:18:11;;;;;;;7.07;4.65;;;;;;;17.27;100.00;98225.34;5055353;28;20059;-75
2023/06/30 03:20:36;;;;;;;8.63;4.43;;;;;;;17.30;100.00;98235.75;5034979;28;20032;-75
2023/06/30 03:23:01;;;;;;;8.95;5.07;;;;;;;17.22;100.00;98223.38;5041321;28;20054;-75
2023/06/30 03:25:27;;;;;;;7.25;4.75;;;;;;;17.31;100.00;98245.59;5039295;28;20471;-75
2023/06/30 03:27:52;;;;;;;8.25;5.10;;;;;;;17.20;100.00;98220.06;5045440;28;20136;-76
2023/06/30 03:30:17;;;;;;;7.38;5.10;;;;;;;17.26;100.00;98229.94;5051893;28;20016;-75
2023/06/30 03:32:43;;;;;;;7.57;4.82;;;;;;;17.05;100.00;98203.53;5029434;28;20112;-75
2023/06/30 03:35:08;;;;;;;7.15;4.70;;;;;;;17.09;100.00;98219.16;5051905;28;20029;-75
2023/06/30 03:37:33;;;;;;;6.53;4.80;;;;;;;17.15;100.00;98224.69;5047177;28;20074;-75
2023/06/30 03:40:05;;;;;;;8.43;5.00;;;;;;;17.06;100.00;98219.69;5027856;28;20116;-75
2023/06/30 03:42:30;;;;;;;10.48;5.55;;;;;;;17.00;100.00;98215.28;5048650;28;20482;-75
2023/06/30 03:44:55;;;;;;;7.28;5.38;;;;;;;16.98;100.00;98208.41;5063557;28;20060;-73
2023/06/30 03:47:21;;;;;;;11.63;4.97;;;;;;;16.88;100.00;98198.22;5037642;28;20024;-71
2023/06/30 03:49:46;;;;;;;7.38;4.40;;;;;;;16.94;100.00;98201.81;5028632;28;20116;-71
2023/06/30 03:52:11;;;;;;;8.73;4.50;;;;;;;17.03;100.00;98211.19;5024838;28;20029;-72
2023/06/30 03:54:38;;;;;;;9.93;4.40;;;;;;;17.08;100.00;98225.72;5048709;28;20032;-72
2023/06/30 03:57:03;;;;;;;5.13;4.15;;;;;;;17.07;100.00;98217.78;5051037;28;20052;-72
2023/06/30 03:59:29;;;;;;;8.80;4.45;;;;;;;17.12;100.00;98214.25;5053949;28;20430;-72
2023/06/30 04:01:54;;;;;;;8.23;4.47;;;;;;;17.07;100.00;98217.78;5038069;28;20613;-72
2023/06/30 04:04:19;;;;;;;7.30;4.22;;;;;;;17.11;100.00;98209.88;5036711;28;20029;-75
2023/06/30 04:06:46;;;;;;;9.55;4.35;;;;;;;17.18;100.00;98219.50;5036330;28;20124;-74
2023/06/30 04:09:11;;;;;;;6.82;4.50;;;;;;;17.29;100.00;98226.72;5049019;28;20057;-76
2023/06/30 04:11:36;;;;;;;6.95;4.45;;;;;;;17.22;100.00;98206.16;5047181;28;20128;-76
2023/06/30 04:14:02;;;;;;;5.57;4.50;;;;;;;17.39;100.00;98214.19;5050028;28;20037;-73
2023/06/30 04:16:27;;;;;;;11.40;4.78;;;;;;;17.52;100.00;98213.75;5028083;28;20024;-75
2023/06/30 04:18:53;;;;;;;12.20;4.80;;;;;;;17.47;100.00;98211.78;5049219;28;20048;-76
2023/06/30 04:21:19;;;;;;;7.72;5.03;;;;;;;17.50;100.00;98205.81;5045162;28;20040;-76
2023/06/30 04:23:44;;;;;;;7.50;4.80;;;;;;;17.68;100.00;98215.53;5050804;28;20407;-78
2023/06/30 04:26:09;;;;;;;7.43;4.53;;;;;;;17.74;100.00;98198.03;5049894;28;20083;-77
2023/06/30 04:28:35;;;;;;;8.50;5.15;;;;;;;17.85;100.00;98190.75;5052310;28;20025;-77
2023/06/30 04:31:00;;;;;;;13.95;5.68;;;;;;;17.99;100.00;98199.28;5045278;28;20121;-77
2023/06/30 04:33:25;;;;;;;9.15;5.28;;;;;;;18.13;100.00;98192.25;5054237;28;20537;-79
2023/06/30 04:35:51;;;;;;;7.45;5.13;;;;;;;18.05;100.00;98173.59;5059222;28;20029;-79
2023/06/30 04:38:19;;;;;;;7.70;4.97;;;;;;;18.43;100.00;98201.66;5084079;28;20688;-76
2023/06/30 04:40:46;;;;;;;11.00;4.70;;;;;;;18.59;100.00;98197.03;5071663;28;20025;-79
2023/06/30 04:43:12;;;;;;;8.82;5.03;;;;;;;18.68;100.00;98206.38;5040853;28;20029;-76
2023/06/30 04:45:39;;;;;;;7.22;4.63;;;;;;;18.62;100.00;98208.28;5039436;28;20475;-75
2023/06/30 04:48:04;;;;;;;12.02;5.22;;;;;;;18.43;100.00;98185.22;5052373;28;20478;-75
2023/06/30 04:50:30;;;;;;;7.95;5.05;;;;;;;18.36;100.00;98176.44;5034625;28;20155;-75
2023/06/30 04:52:55;;;;;;;10.45;5.32;;;;;;;18.44;100.00;98192.34;5035192;28;20072;-74
2023/06/30 04:55:20;;;;;;;6.43;4.57;;;;;;;18.37;100.00;98189.03;5038012;28;20360;-76
2023/06/30 04:57:46;;;;;;;14.20;5.18;;;;;;;18.28;100.00;98182.44;5070616;28;20028;-75
2023/06/30 05:00:11;;;;;;;10.15;5.57;;;;;;;18.37;100.00;98194.53;5068930;28;20061;-73
2023/06/30 05:02:37;;;;;;;7.20;4.78;;;;;;;18.40;100.00;98213.16;5040758;28;20102;-75
2023/06/30 05:05:02;;;;;;;10.18;4.68;;;;;;;18.18;100.00;98197.75;5060135;28;20032;-75
2023/06/30 05:07:27;;;;;;;5.75;4.10;;;;;;;18.26;100.00;98222.94;5039661;28;20554;-74
2023/06/30 05:09:55;;;;;;;11.57;4.63;;;;;;;18.14;100.00;98210.31;5060690;28;20475;-79
2023/06/30 05:12:20;;;;;;;10.02;4.35;;;;;;;18.05;100.00;98213.81;5058610;28;20025;-79
2023/06/30 05:14:46;;;;;;;6.85;4.85;;;;;;;17.96;100.00;98230.75;5045164;28;20502;-76
2023/06/30 05:17:11;;;;;;;7.15;4.40;;;;;;;18.03;100.00;98227.78;5051154;28;20033;-76
2023/06/30 05:19:36;;;;;;;10.70;5.03;;;;;;;17.96;100.00;98235.41;5050567;28;20037;-78
2023/06/30 05:22:02;;;;;;;9.73;4.78;;;;;;;17.88;100.00;98242.19;5039606;28;20467;-75
2023/06/30 05:24:27;;;;;;;7.75;4.22;;;;;;;17.88;100.00;98238.63;5060201;28;20035;-75
2023/06/30 05:26:53;;;;;;;7.53;4.60;;;;;;;17.96;100.00;98236.22;5068448;28;20095;-74
2023/06/30 05:29:19;;;;;;;8.68;4.70;;;;;;;18.20;100.00;98243.19;5047429;28;20079;-74
2023/06/30 05:31:44;;;;;;;7.35;5.05;;;;;;;18.14;100.00;98221.25;5053814;28;20036;-72
2023/06/30 05:34:15;;;;;;;10.27;5.03;;;;;;;18.31;100.00;98232.03;5055140;28;20447;-76
2023/06/30 05:36:42;;;;;;;8.88;4.60;;;;;;;18.49;100.00;98244.41;5055535;28;20112;-76
2023/06/30 05:39:08;;;;;;;11.50;4.75;;;;;;;18.56;100.00;98244.97;5072226;28;20042;-77
2023/06/30 05:41:33;;;;;;;8.65;4.43;;;;;;;18.66;100.00;98265.28;5049358;28;20067;-75
2023/06/30 05:43:58;;;;;;;8.52;4.20;;;;;;;18.64;100.00;98248.28;5058218;28;20036;-74
2023/06/30 05:46:24;;;;;;;10.35;4.65;;;;;;;18.52;100.00;98252.09;5058089;28;20032;-74
2023/06/30 05:48:49;;;;;;;6.05;4.47;;;;;;;18.45;100.00;98264.41;5054522;28;20024;-77
2023/06/30 05:51:14;;;;;;;6.53;4.20;;;;;;;18.30;100.00;98262.41;5059103;28;20017;-78
2023/06/30 05:53:39;;;;;;;15.07;5.60;;;;;;;18.14;100.00;98254.09;5025331;28;20068;-77
2023/06/30 05:56:05;;;;;;;12.60;5.35;;;;;;;18.12;100.00;98261.75;5060412;28;20033;-79
2023/06/30 05:58:30;;;;;;;12.85;5.38;;;;;;;18.17;100.00;98272.75;5040334;28;20029;-79
2023/06/30 06:00:55;;;;;;;9.02;5.63;;;;;;;18.18;100.00;98281.78;5050210;28;20073;-82
2023/06/30 06:03:21;;;;;;;12.95;6.45;;;;;;;18.06;100.00;98279.25;5048490;28;20025;-84
2023/06/30 06:05:46;;;;;;;8.73;5.78;;;;;;;17.98;100.00;98270.72;5056760;28;20024;-80
2023/06/30 06:08:11;;;;;;;22.60;8.05;;;;;;;17.94;100.00;98292.31;5052926;28;20048;-73
2023/06/30 06:10:36;;;;;;;31.15;11.32;;;;;;;17.89;100.00;98267.66;5052086;28;20483;-77
2023/06/30 06:13:02;;;;;;;42.72;14.65;;;;;;;17.97;100.00;98291.78;5037845;28;20097;-75
2023/06/30 06:15:27;;;;;;;41.83;15.43;;;;;;;17.78;100.00;98279.59;5034987;28;20108;-74
2023/06/30 06:17:52;;;;;;;32.50;12.80;;;;;;;17.80;100.00;98297.44;5054706;28;20087;-74
2023/06/30 06:20:18;;;;;;;23.35;10.70;;;;;;;17.85;100.00;98308.41;5053257;28;20029;-74
2023/06/30 06:22:43;;;;;;;16.30;8.80;;;;;;;17.71;100.00;98288.00;5033949;28;20025;-74
2023/06/30 06:25:09;;;;;;;13.80;8.45;;;;;;;17.77;100.00;98308.88;5053154;28;20033;-74
2023/06/30 06:27:37;;;;;;;11.15;7.28;;;;;;;17.79;100.00;98290.31;5050607;28;20034;-74
2023/06/30 06:30:06;;;;;;;12.35;7.95;;;;;;;17.94;100.00;98303.25;5046595;28;20048;-76
2023/06/30 06:32:31;;;;;;;16.08;7.90;;;;;;;18.07;100.00;98313.75;5034666;28;20032;-76
2023/06/30 06:34:57;;;;;;;21.00;9.13;;;;;;;18.02;100.00;98274.56;5053596;28;20490;-76
2023/06/30 06:37:22;;;;;;;21.70;8.95;;;;;;;18.30;100.00;98306.22;5052275;28;20029;-76
2023/06/30 06:39:47;;;;;;;13.95;7.05;;;;;;;18.38;100.00;98309.28;5060118;28;20088;-76
2023/06/30 06:42:12;;;;;;;13.50;7.13;;;;;;;18.50;100.00;98297.28;5043598;28;20025;-75
2023/06/30 06:44:38;;;;;;;15.18;6.30;;;;;;;18.63;100.00;98288.56;5051980;28;20082;-76
2023/06/30 06:47:41;;;;;;;10.38;6.35;;;;;;;18.83;100.00;98301.53;5027137;28;20020;-74
2023/06/30 06:50:07;;;;;;;15.13;5.75;;;;;;;18.93;100.00;98290.59;5043434;28;20025;-74
2023/06/30 06:52:32;;;;;;;9.13;5.90;;;;;;;19.02;100.00;98288.16;5038846;28;20021;-74
2023/06/30 06:54:57;;;;;;;7.32;5.55;;;;;;;19.25;100.00;98304.09;5051152;28;20044;-74
2023/06/30 06:57:23;;;;;;;8.00;5.18;;;;;;;19.29;100.00;98298.91;5053874;28;20029;-74
2023/06/30 06:59:48;;;;;;;10.88;6.20;;;;;;;19.41;100.00;98301.38;5058743;28;20020;-75
2023/06/30 07:02:13;;;;;;;11.13;6.30;;;;;;;19.44;100.00;98312.63;5043719;28;20036;-76
2023/06/30 07:04:39;;;;;;;7.80;5.45;;;;;;;19.63;100.00;98315.66;5052380;28;20071;-81
2023/06/30 07:07:05;;;;;;;9.38;6.00;;;;;;;19.60;100.00;98291.50;5051294;28;20029;-80
2023/06/30 07:09:30;;;;;;;17.15;6.57;;;;;;;19.67;100.00;98302.22;5041282;28;20028;-82
2023/06/30 07:11:55;;;;;;;10.50;6.38;;;;;;;19.41;100.00;98309.59;5041675;28;20029;-74
2023/06/30 07:14:22;;;;;;;10.63;6.75;;;;;;;19.21;100.00;98303.00;5047241;28;20115;-67
2023/06/30 07:16:49;;;;;;;14.82;7.53;;;;;;;18.98;100.00;98306.25;5046405;28;20039;-72
2023/06/30 07:19:14;;;;;;;11.23;7.00;;;;;;;18.77;100.00;98305.34;5036599;28;20440;-73
2023/06/30 07:21:40;;;;;;;11.32;7.15;;;;;;;18.86;100.00;98324.84;5040107;28;20101;-73
2023/06/30 07:24:05;;;;;;;15.57;7.20;;;;;;;18.78;100.00;98309.75;5046459;28;20405;-73
2023/06/30 07:26:33;;;;;;;13.15;7.43;;;;;;;19.00;100.00;98315.84;5049761;28;20029;-75
2023/06/30 07:28:58;;;;;;;14.40;7.53;;;;;;;19.08;100.00;98325.47;5053139;28;20538;-75
2023/06/30 07:31:24;;;;;;;14.85;7.78;;;;;;;19.27;100.00;98328.53;5053605;28;20044;-75
2023/06/30 07:33:49;;;;;;;10.52;8.15;;;;;;;19.54;100.00;98346.66;5037975;28;20028;-74
2023/06/30 07:36:14;;;;;;;10.18;8.18;;;;;;;19.63;100.00;98337.63;5054582;28;20462;-73
2023/06/30 07:38:40;;;;;;;16.27;8.63;;;;;;;19.82;100.00;98348.06;5061027;28;20021;-73
2023/06/30 07:41:05;;;;;;;11.88;7.55;;;;;;;20.14;100.00;98351.34;5045954;28;20068;-73
2023/06/30 07:43:30;;;;;;;9.25;7.45;;;;;;;20.17;100.00;98349.94;5040677;28;20020;-74
2023/06/30 07:45:55;;;;;;;11.88;8.15;;;;;;;20.18;100.00;98323.34;5047886;28;20036;-72
2023/06/30 07:48:21;;;;;;;17.00;8.23;;;;;;;20.48;100.00;98316.91;5046399;28;20071;-72
2023/06/30 07:50:46;;;;;;;14.40;8.07;;;;;;;20.87;100.00;98336.31;5059443;28;20028;-66
2023/06/30 07:53:11;;;;;;;10.88;7.78;;;;;;;20.88;100.00;98315.97;5051753;28;20445;-75
2023/06/30 07:55:37;;;;;;;12.50;7.90;;;;;;;20.99;100.00;98333.25;5049230;28;20044;-72
2023/06/30 07:58:02;;;;;;;10.35;7.47;;;;;;;21.05;100.00;98343.09;5051625;28;20036;-71
2023/06/30 08:00:30;;;;;;;15.50;7.90;;;;;;;21.13;100.00;98345.25;5052319;28;20585;-72
2023/06/30 08:02:56;;;;;;;10.63;7.57;;;;;;;21.10;100.00;98351.34;5035794;28;20395;-68
2023/06/30 08:05:22;;;;;;;11.20;7.63;;;;;;;21.19;100.00;98330.34;5047787;28;20024;-68
2023/06/30 08:07:47;;;;;;;11.35;8.10;;;;;;;21.15;100.00;98340.31;5045201;28;20444;-72
2023/06/30 08:10:12;;;;;;;15.70;8.70;;;;;;;21.07;100.00;98338.16;5042788;28;20145;-72
2023/06/30 08:12:39;;;;;;;15.50;8.43;;;;;;;21.30;100.00;98355.91;5051554;28;20104;-72
2023/06/30 08:15:04;;;;;;;13.02;8.75;;;;;;;21.33;100.00;98351.78;5052380;28;20478;-71
2023/06/30 08:17:30;;;;;;;14.60;8.35;;;;;;;21.33;100.00;98341.56;5038844;28;20037;-71
2023/06/30 08:19:55;;;;;;;18.70;9.13;;;;;;;21.54;100.00;98358.81;5049651;28;20040;-67
2023/06/30 08:22:21;;;;;;;16.67;9.75;;;;;;;21.28;100.00;98358.13;5059213;28;20024;-64
2023/06/30 08:24:47;;;;;;;15.45;9.35;;;;;;;21.58;100.00;98362.63;5048761;28;20108;-64
2023/06/30 08:27:13;;;;;;;14.73;10.00;;;;;;;21.30;100.00;98366.91;5047640;28;20056;-66
2023/06/30 08:29:38;;;;;;;18.70;10.68;;;;;;;21.10;100.00;98370.59;5047860;28;20029;-64
2023/06/30 08:32:04;;;;;;;19.55;11.73;;;;;;;21.11;100.00;98374.97;5044372;28;20021;-64
2023/06/30 08:34:29;;;;;;;14.85;10.48;;;;;;;21.00;100.00;98381.63;5047994;28;20040;-64
2023/06/30 08:36:55;;;;;;;20.80;11.10;;;;;;;21.12;100.00;98381.31;5051151;28;20386;-64
2023/06/30 08:39:22;;;;;;;24.58;10.55;;;;;;;20.89;100.00;98385.53;5050933;28;20028;-63
2023/06/30 08:41:52;;;;;;;18.80;11.50;;;;;;;20.49;100.00;98384.53;5045200;28;20037;-64
2023/06/30 08:44:22;;;;;;;21.30;11.93;;;;;;;20.48;100.00;98391.94;5043958;28;20029;-74
2023/06/30 08:46:51;;;;;;;21.55;12.55;;;;;;;20.53;100.00;98385.63;5049205;28;20087;-71
2023/06/30 08:49:16;;;;;;;21.15;11.90;;;;;;;20.26;100.00;98394.19;5050866;28;20028;-75
2023/06/30 08:51:42;;;;;;;18.75;11.90;;;;;;;20.15;100.00;98385.13;5050154;28;20028;-72
2023/06/30 08:54:08;;;;;;;23.75;12.35;;;;;;;20.09;100.00;98394.47;5051492;28;20032;-71
2023/06/30 08:56:38;;;;;;;20.98;12.60;;;;;;;19.92;100.00;98394.75;5031431;28;20112;-73
2023/06/30 08:59:04;;;;;;;21.45;13.35;;;;;;;19.77;100.00;98397.47;5033544;28;20025;-71
2023/06/30 09:01:30;;;;;;;22.65;12.88;;;;;;;20.02;100.00;98381.03;5048684;28;20120;-71
2023/06/30 09:03:56;;;;;;;23.50;13.23;;;;;;;20.05;100.00;98398.88;5050795;28;20561;-70
2023/06/30 09:06:22;;;;;;;20.52;12.60;;;;;;;20.55;100.00;98384.25;5032380;28;20449;-71
2023/06/30 09:08:59;;;;;;;20.17;12.38;;;;;;;20.53;100.00;98391.94;5050383;28;20029;-72
2023/06/30 09:11:29;;;;;;;24.23;12.65;;;;;;;21.07;100.00;98382.16;5054216;28;20029;-72
2023/06/30 09:13:56;;;;;;;;;;;;;;;21.24;100.00;98377.09;5041970;28;20029;-72
2023/06/30 09:16:22;;;;;;;19.33;11.25;;;;;;;21.75;100.00;98353.16;5042247;28;19917;-74
2023/06/30 09:18:48;;;;;;;22.17;12.38;;;;;;;21.91;100.00;98365.69;5050152;28;20087;-66
2023/06/30 09:21:13;;;;;;;22.27;11.68;;;;;;;21.54;100.00;98363.50;5035547;28;20025;-68
2023/06/30 09:23:39;;;;;;;18.55;12.23;;;;;;;21.90;100.00;98361.25;5054743;28;20107;-71
2023/06/30 09:26:14;;;;;;;23.00;13.23;;;;;;;22.01;100.00;98371.09;5042730;28;20111;-72
2023/06/30 09:28:42;;;;;;;24.92;13.60;;;;;;;21.98;100.00;98352.41;5052331;28;20021;-73
2023/06/30 09:31:08;;;;;;;22.83;12.00;;;;;;;22.16;100.00;98358.28;5053286;28;20111;-69
2023/06/30 09:33:34;;;;;;;19.85;12.52;;;;;;;22.08;100.00;98360.56;5054157;28;20028;-68
2023/06/30 09:36:00;;;;;;;22.35;12.82;;;;;;;21.97;100.00;98363.69;5050299;28;20095;-65
2023/06/30 09:38:28;;;;;;;21.45;12.70;;;;;;;22.24;100.00;98355.78;5048644;28;20024;-65
2023/06/30 09:40:53;;;;;;;24.30;13.48;;;;;;;22.30;100.00;98356.53;5047529;28;20021;-66
2023/06/30 09:43:21;;;;;;;21.70;12.85;;;;;;;22.35;100.00;98369.44;5052054;28;20032;-65
2023/06/30 09:45:54;;;;;;;21.70;13.00;;;;;;;22.59;100.00;98352.94;5049146;28;20040;-65
2023/06/30 09:48:19;;;;;;;24.58;13.77;;;;;;;22.57;100.00;98350.47;5049559;28;20056;-65
2023/06/30 09:50:44;;;;;;;22.52;13.50;;;;;;;22.54;100.00;98356.56;5051749;28;20053;-65
2023/06/30 09:53:10;;;;;;;23.58;13.30;;;;;;;22.40;100.00;98334.41;5045359;28;20071;-67
2023/06/30 09:55:49;;;;;;;23.92;13.45;;;;;;;22.09;100.00;98359.47;5057260;28;20483;-65
2023/06/30 09:58:16;;;;;;;23.70;13.50;;;;;;;22.07;100.00;98358.91;5056788;28;20030;-65
2023/06/30 10:00:43;;;;;;;22.70;14.40;;;;;;;22.03;100.00;98363.38;5039837;28;20040;-65
2023/06/30 10:03:10;;;;;;;23.88;13.90;;;;;;;22.13;100.00;98348.66;5043030;28;20037;-65
2023/06/30 10:05:37;;;;;;;24.17;13.73;;;;;;;22.42;100.00;98356.13;5052877;28;20102;-65
2023/06/30 10:08:03;;;;;;;22.17;12.38;;;;;;;22.85;100.00;98350.69;5051521;28;20060;-65
2023/06/30 10:10:29;;;;;;;23.75;13.68;;;;;;;22.76;100.00;98358.78;5049849;28;20897;-65
2023/06/30 10:12:56;;;;;;;23.67;13.88;;;;;;;22.80;100.00;98343.31;5056502;28;20071;-66
2023/06/30 10:15:22;;;;;;;23.27;13.35;;;;;;;23.36;100.00;98333.47;5038066;28;20028;-64
2023/06/30 10:17:48;;;;;;;25.50;13.40;;;;;;;23.46;100.00;98310.41;5052715;28;20056;-64
2023/06/30 10:20:13;;;;;;;19.08;12.52;;;;;;;24.14;100.00;98348.53;5054058;28;20123;-65
2023/06/30 10:22:39;;;;;;;20.27;13.32;;;;;;;24.82;100.00;98335.91;5035331;28;20099;-64
2023/06/30 10:25:10;;;;;;;23.00;14.15;;;;;;;24.95;100.00;98330.69;5043129;28;20116;-64
2023/06/30 10:27:36;;;;;;;20.92;14.38;;;;;;;24.62;100.00;98337.13;5052050;28;20482;-64
2023/06/30 10:30:02;;;;;;;23.10;14.10;;;;;;;24.80;100.00;98331.81;5052046;28;20032;-66
2023/06/30 10:32:28;;;;;;;22.88;13.73;;;;;;;24.66;100.00;98329.06;5052595;28;20107;-64
2023/06/30 10:34:53;;;;;;;22.52;13.98;;;;;;;24.53;100.00;98339.00;5031423;28;20131;-64
2023/06/30 10:37:19;;;;;;;22.50;14.18;;;;;;;23.80;100.00;98349.66;5054452;28;20059;-66
2023/06/30 10:39:46;;;;;;;23.33;14.00;;;;;;;23.28;100.00;98350.69;5051362;28;20483;-65
2023/06/30 10:42:12;;;;;;;24.42;15.63;;;;;;;23.29;100.00;98350.41;5052847;28;20111;-64
2023/06/30 10:44:39;;;;;;;25.52;15.15;;;;;;;23.27;100.00;98349.06;5052255;28;20537;-65
2023/06/30 10:47:05;;;;;;;23.63;14.05;;;;;;;23.61;100.00;98341.38;5048267;28;20052;-65
2023/06/30 10:49:33;;;;;;;20.92;14.32;;;;;;;23.78;100.00;98351.88;5042037;28;20102;-64
2023/06/30 10:52:04;;;;;;;26.75;15.23;;;;;;;23.26;100.00;98333.59;5052591;28;20039;-64
2023/06/30 10:54:31;;;;;;;28.98;16.20;;;;;;;22.62;100.00;98355.91;5051547;28;20036;-65
2023/06/30 10:57:08;;;;;;;26.17;15.60;;;;;;;22.39;100.00;98348.44;5051980;28;20538;-64
2023/06/30 10:59:40;;;;;;;23.25;15.15;;;;;;;22.63;100.00;98342.94;5050416;28;20044;-64
2023/06/30 11:02:13;;;;;;;27.83;15.85;;;;;;;22.73;100.00;98340.88;5053301;28;20402;-64
2023/06/30 11:04:43;;;;;;;26.33;14.45;;;;;;;23.02;100.00;98328.16;5050390;28;20479;-67
2023/06/30 11:07:10;;;;;;;23.83;15.10;;;;;;;23.58;100.00;98330.94;5048733;28;20033;-66
2023/06/30 11:09:48;;;;;;;26.33;15.35;;;;;;;24.06;100.00;98339.00;5043623;28;20048;-66
2023/06/30 11:12:24;;;;;;;26.33;14.98;;;;;;;24.51;100.00;98321.06;5045285;28;20033;-65
2023/06/30 11:14:59;;;;;;;25.10;15.65;;;;;;;24.15;100.00;98327.22;5047869;28;20044;-64